If you wish to contribute or participate in the discussions about articles you are invited to join SKYbrary as a registered user

 Actions

Islamabad International Airport

From SKYbrary Wiki

OPIS
Airport
ICAO: OPIS – IATA: ISB
Summary
Name Islamabad International Airport
Region Asia and Pacific
Territory Pakistan PK.gif
Location Thalian, Punjab
Serving Islamabad and Rawalpindi
Elevation 536.753 m <br />1,761 ft536.753 m <br />
Coordinates 33° 33' 30.46" N, 73° 3' 23.62" E
Runways
Designator Length Width Surface ROPS


METAR
Observation OPIS 250300Z 27010KT 4000 BR NSC 13/11 Q1020 BECMG 5000 FU
Station Islamabad International Airport
Date/Time 25 October 2021 03:00:00
Wind direction 270°
Wind speed 10 kts
Lowest cloud amount nil significant cloud
Temperature 13°C
Dew point 11°C
Humidity 87%
QNH 1020 hPa
Weather condition n/a

Islamabad International Airport is the main international airport serving the Islamabad-Rawalpindi metropolitan area and its suburbs.

Climatology

Humid subtropical climate (Köppen climate classification Cwa)

Maps

Terrain

Loading map...

Airport Layout

Loading map...


Accidents & Serious Incidents at or in vicinity of OPIS

None on SKYbrary